Time;durP1;ratioP1;P1;durP2;ratioP2;P2;SDS_P1;SDS_P2;PMS_P1;PMS_P2;Temp;Humidity;BMP_temperature;BMP_pressure;BME280_temperature;BME280_humidity;BME280_pressure;Samples;Min_cycle;Max_cycle;Signal;HPM_P1;HPM_P2
2024/02/20 00:00:35;;;;;;;15.93;5.90;;;7.40;99.90;;;;;;7606401;19;20038;-74
2024/02/20 00:03:07;;;;;;;8.95;5.07;;;7.50;99.90;;;;;;7602794;19;20022;-74
2024/02/20 00:05:39;;;;;;;10.20;4.88;;;7.50;99.90;;;;;;7604841;19;20039;-73
2024/02/20 00:08:12;;;;;;;9.70;4.32;;;7.40;99.90;;;;;;7599966;19;20955;-74
2024/02/20 00:10:44;;;;;;;11.02;5.25;;;7.40;99.90;;;;;;7603107;19;20022;-76
2024/02/20 00:13:17;;;;;;;10.43;4.88;;;7.40;99.90;;;;;;7605128;19;20326;-75
2024/02/20 00:15:50;;;;;;;7.90;4.63;;;7.50;99.90;;;;;;7609145;19;20021;-76
2024/02/20 00:18:22;;;;;;;7.38;4.38;;;7.50;99.90;;;;;;7603099;19;20019;-76
2024/02/20 00:20:54;;;;;;;14.20;4.97;;;7.50;99.90;;;;;;7583802;19;20626;-75
2024/02/20 00:23:27;;;;;;;7.05;3.92;;;7.60;99.90;;;;;;7610057;19;20014;-76
2024/02/20 00:26:01;;;;;;;12.60;5.30;;;7.60;99.90;;;;;;7602278;19;20021;-74
2024/02/20 00:28:40;;;;;;;9.02;4.65;;;7.70;99.90;;;;;;7598432;19;20018;-76
2024/02/20 00:31:13;;;;;;;13.60;4.85;;;7.70;99.90;;;;;;7594091;19;20914;-76
2024/02/20 00:33:45;;;;;;;14.93;6.28;;;7.70;99.90;;;;;;7600669;19;20057;-75
2024/02/20 00:36:18;;;;;;;19.05;7.22;;;7.70;99.90;;;;;;7562624;19;20010;-76
2024/02/20 00:38:50;;;;;;;16.03;7.23;;;7.70;99.90;;;;;;7602309;19;20029;-75
2024/02/20 00:41:23;;;;;;;17.48;7.60;;;7.80;99.90;;;;;;7573199;19;20090;-76
2024/02/20 00:43:55;;;;;;;20.67;8.05;;;7.80;99.90;;;;;;7597033;19;20053;-74
2024/02/20 00:46:28;;;;;;;9.57;4.55;;;7.80;99.90;;;;;;7600766;19;20034;-76
2024/02/20 00:49:01;;;;;;;10.27;4.47;;;7.80;99.90;;;;;;7593543;19;20498;-75
2024/02/20 00:51:33;;;;;;;8.73;4.05;;;7.80;99.90;;;;;;7602601;19;20279;-74
2024/02/20 00:54:05;;;;;;;11.13;4.40;;;7.70;99.90;;;;;;7595653;19;20018;-75
2024/02/20 00:56:38;;;;;;;8.38;4.10;;;7.70;99.90;;;;;;7607570;19;20014;-76
2024/02/20 00:59:11;;;;;;;6.97;4.10;;;7.70;99.90;;;;;;7601009;19;20019;-76
2024/02/20 01:01:43;;;;;;;8.90;4.88;;;7.60;99.90;;;;;;7602950;19;20010;-72
2024/02/20 01:04:16;;;;;;;8.47;4.63;;;7.60;99.90;;;;;;7597878;19;20402;-74
2024/02/20 01:06:48;;;;;;;7.93;3.95;;;7.60;99.90;;;;;;7608374;19;20018;-73
2024/02/20 01:09:21;;;;;;;7.53;3.92;;;7.60;99.90;;;;;;7587890;19;20480;-74
2024/02/20 01:11:53;;;;;;;9.45;3.55;;;7.50;99.90;;;;;;7604854;19;20030;-73
2024/02/20 01:14:25;;;;;;;8.02;3.85;;;7.50;99.90;;;;;;7598250;19;20050;-74
2024/02/20 01:16:57;;;;;;;9.88;4.82;;;7.30;99.90;;;;;;7602000;19;20054;-73
2024/02/20 01:19:30;;;;;;;10.57;3.83;;;7.30;99.90;;;;;;7620211;19;20018;-73
2024/02/20 01:22:02;;;;;;;8.00;3.58;;;7.10;99.90;;;;;;7582674;19;20048;-75
2024/02/20 01:24:35;;;;;;;8.73;3.40;;;7.10;99.90;;;;;;7607213;19;20105;-76
2024/02/20 01:27:07;;;;;;;8.55;3.42;;;7.00;99.90;;;;;;7597704;19;20025;-74
2024/02/20 01:29:42;;;;;;;7.50;3.45;;;7.00;99.90;;;;;;7598703;19;20621;-75
2024/02/20 01:32:14;;;;;;;12.73;5.00;;;6.90;99.90;;;;;;7597386;19;20044;-75
2024/02/20 01:34:47;;;;;;;9.57;3.83;;;6.90;99.90;;;;;;7594788;19;21049;-74
2024/02/20 01:37:19;;;;;;;10.05;3.75;;;6.80;99.90;;;;;;7585939;19;20093;-75
2024/02/20 01:39:52;;;;;;;10.80;3.77;;;6.90;99.90;;;;;;7533870;19;20015;-75
2024/02/20 01:42:27;;;;;;;9.40;3.40;;;6.90;99.90;;;;;;7593663;19;20320;-76
2024/02/20 01:44:59;;;;;;;8.02;3.97;;;6.80;99.90;;;;;;7598927;19;20018;-73
2024/02/20 01:47:32;;;;;;;8.27;3.95;;;6.90;99.90;;;;;;7597090;19;20040;-76
2024/02/20 01:50:06;;;;;;;7.68;3.63;;;6.80;99.90;;;;;;7587769;19;20053;-75
2024/02/20 01:52:39;;;;;;;12.73;4.38;;;6.70;99.90;;;;;;7593872;19;20046;-76
2024/02/20 01:55:12;;;;;;;7.50;3.63;;;6.70;99.90;;;;;;7591657;19;20078;-76
2024/02/20 01:57:45;;;;;;;8.68;3.53;;;6.70;99.90;;;;;;7590239;19;20014;-75
2024/02/20 02:00:17;;;;;;;6.85;3.08;;;6.60;99.90;;;;;;7596652;19;20901;-75
2024/02/20 02:02:50;;;;;;;9.57;3.60;;;6.60;99.90;;;;;;7600282;19;20028;-74
2024/02/20 02:05:23;;;;;;;4.82;3.15;;;6.70;99.90;;;;;;7594938;19;20612;-75
2024/02/20 02:07:59;;;;;;;10.60;3.57;;;6.80;99.90;;;;;;7593763;19;20776;-74
2024/02/20 02:10:31;;;;;;;7.32;3.60;;;6.70;99.90;;;;;;7599334;19;20906;-75
2024/02/20 02:13:04;;;;;;;4.85;2.67;;;6.70;99.90;;;;;;7600999;19;20026;-73
2024/02/20 02:15:36;;;;;;;6.07;2.85;;;6.70;99.90;;;;;;7605951;19;20049;-74
2024/02/20 02:18:08;;;;;;;6.10;2.90;;;6.70;99.90;;;;;;7596366;19;20107;-75
2024/02/20 02:20:41;;;;;;;4.43;2.17;;;6.70;99.90;;;;;;7604605;19;20401;-74
2024/02/20 02:23:14;;;;;;;4.63;2.35;;;6.80;99.90;;;;;;7598549;19;20025;-75
2024/02/20 02:25:46;;;;;;;5.10;1.97;;;6.70;99.90;;;;;;7604938;19;20022;-74
2024/02/20 02:28:19;;;;;;;5.10;2.05;;;6.60;99.90;;;;;;7595725;19;20025;-75
2024/02/20 02:30:51;;;;;;;4.80;2.07;;;6.60;99.90;;;;;;7604565;19;20026;-75
2024/02/20 02:33:23;;;;;;;4.05;2.03;;;6.60;99.90;;;;;;7590708;19;21442;-74
2024/02/20 02:35:59;;;;;;;4.90;1.38;;;6.50;99.90;;;;;;7604797;19;21402;-75
2024/02/20 02:38:31;;;;;;;3.90;1.70;;;6.50;99.90;;;;;;7595992;19;20022;-74
2024/02/20 02:41:04;;;;;;;6.88;1.90;;;6.50;99.90;;;;;;7603390;19;20453;-75
2024/02/20 02:43:36;;;;;;;3.53;1.30;;;6.50;99.90;;;;;;7602255;19;20015;-75
2024/02/20 02:46:11;;;;;;;5.03;1.80;;;6.60;99.90;;;;;;7592216;19;20027;-74
2024/02/20 02:48:44;;;;;;;4.68;1.50;;;6.50;99.90;;;;;;7598310;19;20078;-75
2024/02/20 02:51:16;;;;;;;4.18;1.70;;;6.50;99.90;;;;;;7594553;19;20026;-75
2024/02/20 02:53:48;;;;;;;5.65;2.05;;;6.50;99.90;;;;;;7606149;19;20232;-75
2024/02/20 02:56:22;;;;;;;9.73;1.88;;;6.40;99.90;;;;;;7595152;19;20014;-75
2024/02/20 02:58:54;;;;;;;;;;;6.40;99.90;;;;;;7598960;19;20105;-74
2024/02/20 03:01:27;;;;;;;2.22;1.70;;;6.40;99.90;;;;;;7591993;19;19939;-75
2024/02/20 03:04:00;;;;;;;4.18;1.40;;;6.30;99.90;;;;;;7597019;19;20094;-76
2024/02/20 03:06:40;;;;;;;2.33;1.50;;;6.40;99.90;;;;;;7591287;19;20030;-74
2024/02/20 03:09:13;;;;;;;2.00;1.40;;;6.50;99.90;;;;;;7594403;19;20391;-75
2024/02/20 03:11:45;;;;;;;5.37;1.70;;;6.40;99.90;;;;;;7603459;19;20492;-74
2024/02/20 03:14:21;;;;;;;2.95;1.77;;;6.40;99.90;;;;;;7584399;19;20322;-73
2024/02/20 03:16:54;;;;;;;3.50;1.70;;;6.50;99.90;;;;;;7600143;19;20011;-74
2024/02/20 03:19:26;;;;;;;2.93;1.60;;;6.50;99.90;;;;;;7582833;19;20054;-78
2024/02/20 03:21:59;;;;;;;1.75;1.30;;;6.50;99.90;;;;;;7607902;19;20266;-75
2024/02/20 03:24:31;;;;;;;4.18;1.67;;;6.50;99.90;;;;;;7603472;19;20898;-74
2024/02/20 03:27:06;;;;;;;3.03;1.70;;;6.50;99.90;;;;;;7607075;19;20018;-74
2024/02/20 03:29:38;;;;;;;5.10;2.92;;;6.50;99.90;;;;;;7604284;19;20025;-74
2024/02/20 03:32:11;;;;;;;4.25;2.45;;;6.50;99.90;;;;;;7602310;19;20090;-76
2024/02/20 03:34:44;;;;;;;5.38;2.10;;;6.50;99.90;;;;;;7607426;19;20011;-72
2024/02/20 03:37:16;;;;;;;3.33;1.60;;;6.50;99.90;;;;;;7602395;19;20019;-73
2024/02/20 03:39:48;;;;;;;3.17;1.52;;;6.50;99.90;;;;;;7600700;19;20018;-75
2024/02/20 03:42:21;;;;;;;2.00;1.40;;;6.50;99.90;;;;;;7605203;19;20057;-77
2024/02/20 03:44:53;;;;;;;2.88;1.45;;;6.40;99.90;;;;;;7609866;19;20014;-77
2024/02/20 03:47:26;;;;;;;2.38;1.75;;;6.50;99.90;;;;;;7604736;19;20031;-75
2024/02/20 03:49:58;;;;;;;3.40;2.10;;;6.50;99.90;;;;;;7592949;19;25841;-73
2024/02/20 03:52:31;;;;;;;4.82;1.92;;;6.40;99.90;;;;;;7597515;19;20496;-74
2024/02/20 03:55:04;;;;;;;4.13;2.40;;;6.40;99.90;;;;;;7606818;19;20018;-75
2024/02/20 03:57:37;;;;;;;3.75;2.30;;;6.40;99.90;;;;;;7598439;19;21157;-74
2024/02/20 04:00:14;;;;;;;5.28;2.25;;;6.30;99.90;;;;;;7603872;19;20029;-76
2024/02/20 04:02:47;;;;;;;4.35;2.40;;;6.30;99.90;;;;;;7600585;19;20050;-76
2024/02/20 04:05:20;;;;;;;5.47;2.50;;;6.40;99.90;;;;;;7600800;19;20380;-75
2024/02/20 04:07:54;;;;;;;7.05;2.92;;;6.30;99.90;;;;;;7586596;19;20025;-75
2024/02/20 04:10:26;;;;;;;5.68;2.78;;;6.30;99.90;;;;;;7590384;19;20014;-76
2024/02/20 04:12:59;;;;;;;7.55;2.83;;;6.30;99.90;;;;;;7578507;19;20793;-76
2024/02/20 04:15:32;;;;;;;8.65;3.40;;;6.30;99.90;;;;;;7594850;19;21177;-75
2024/02/20 04:18:04;;;;;;;7.22;3.05;;;6.30;99.90;;;;;;7604872;19;20028;-74
2024/02/20 04:20:37;;;;;;;6.50;3.70;;;6.30;99.90;;;;;;7587621;19;20529;-74
2024/02/20 04:23:09;;;;;;;7.05;3.65;;;6.20;99.90;;;;;;7575406;19;20022;-74
2024/02/20 04:25:43;;;;;;;7.68;3.78;;;6.30;99.90;;;;;;7580672;19;20019;-75
2024/02/20 04:28:15;;;;;;;8.20;3.50;;;6.30;99.90;;;;;;7593628;19;20619;-75
2024/02/20 04:30:48;;;;;;;7.72;3.50;;;6.30;99.90;;;;;;7588646;19;20056;-74
2024/02/20 04:33:20;;;;;;;8.73;3.95;;;6.30;99.90;;;;;;7573646;19;20082;-74
2024/02/20 04:35:57;;;;;;;9.88;3.55;;;6.30;99.90;;;;;;7596488;19;20090;-74
2024/02/20 04:38:29;;;;;;;10.25;4.15;;;6.20;99.90;;;;;;7600475;19;20017;-75
2024/02/20 04:41:02;;;;;;;7.60;3.22;;;6.30;99.90;;;;;;7608597;19;20023;-73
2024/02/20 04:43:36;;;;;;;7.07;4.05;;;6.30;99.90;;;;;;7590802;19;22367;-73
2024/02/20 04:46:09;;;;;;;10.18;4.93;;;6.20;99.90;;;;;;7585610;19;20491;-75
2024/02/20 04:48:42;;;;;;;14.48;4.35;;;6.20;99.90;;;;;;7592841;19;20109;-74
2024/02/20 04:51:14;;;;;;;9.25;4.88;;;6.20;99.90;;;;;;7586074;19;20014;-73
2024/02/20 04:53:47;;;;;;;9.90;4.93;;;6.20;99.90;;;;;;7554880;19;20015;-74
2024/02/20 04:56:19;;;;;;;12.73;4.53;;;6.10;99.90;;;;;;7590941;19;20022;-73
2024/02/20 04:58:51;;;;;;;10.05;4.40;;;6.10;99.90;;;;;;7582334;19;20133;-74
2024/02/20 05:01:24;;;;;;;9.77;4.43;;;6.10;99.90;;;;;;7590959;19;20010;-74
2024/02/20 05:03:56;;;;;;;9.75;5.35;;;6.10;99.90;;;;;;7593683;19;20033;-74
2024/02/20 05:06:29;;;;;;;13.60;5.28;;;6.10;99.90;;;;;;7587860;19;20014;-73
2024/02/20 05:09:01;;;;;;;11.82;5.68;;;6.10;99.90;;;;;;7583872;19;20014;-74
2024/02/20 05:11:33;;;;;;;19.00;5.93;;;6.20;99.90;;;;;;7590947;19;20548;-75
2024/02/20 05:14:06;;;;;;;14.75;6.05;;;6.10;99.90;;;;;;7562709;19;21343;-73
2024/02/20 05:16:38;;;;;;;8.75;4.15;;;6.10;99.90;;;;;;7574611;19;20018;-72
2024/02/20 05:19:14;;;;;;;8.90;4.32;;;6.20;99.90;;;;;;7587644;19;20025;-73
2024/02/20 05:21:47;;;;;;;10.70;5.20;;;6.20;99.90;;;;;;7584660;19;20006;-73
2024/02/20 05:24:19;;;;;;;9.93;4.22;;;6.20;99.90;;;;;;7582852;19;20014;-73
2024/02/20 05:26:51;;;;;;;14.68;4.60;;;6.20;99.90;;;;;;7595047;19;20023;-72
2024/02/20 05:29:24;;;;;;;14.25;4.93;;;6.10;99.90;;;;;;7569829;19;20010;-73
2024/02/20 05:31:57;;;;;;;18.27;8.55;;;5.90;99.90;;;;;;7577023;19;20018;-72
2024/02/20 05:34:29;;;;;;;13.15;6.30;;;6.00;99.90;;;;;;7567883;19;20544;-73
2024/02/20 05:37:01;;;;;;;12.65;6.20;;;6.00;99.90;;;;;;7582145;19;20282;-73
2024/02/20 05:39:34;;;;;;;19.75;7.28;;;5.90;99.90;;;;;;7579669;19;20015;-73
2024/02/20 05:42:07;;;;;;;11.80;5.97;;;5.90;99.90;;;;;;7574510;19;20017;-72
2024/02/20 05:44:39;;;;;;;15.48;7.07;;;5.90;99.90;;;;;;7589068;19;22738;-73
2024/02/20 05:47:11;;;;;;;36.85;13.18;;;6.00;99.90;;;;;;7586469;19;20165;-72
2024/02/20 05:49:44;;;;;;;34.60;12.63;;;6.00;99.90;;;;;;7588967;19;20011;-73
2024/02/20 05:52:16;;;;;;;29.67;11.27;;;6.00;99.90;;;;;;7591165;19;20907;-72
2024/02/20 05:54:49;;;;;;;49.13;18.65;;;6.00;99.90;;;;;;7580730;19;20026;-74
2024/02/20 05:57:21;;;;;;;19.02;7.88;;;6.00;99.90;;;;;;7570228;19;20007;-74
2024/02/20 05:59:54;;;;;;;10.27;5.97;;;6.00;99.90;;;;;;7566434;19;20042;-74
2024/02/20 06:02:26;;;;;;;15.15;5.88;;;6.00;99.90;;;;;;7579610;19;20056;-75
2024/02/20 06:05:03;;;;;;;11.18;5.93;;;6.00;99.90;;;;;;7588078;19;20018;-74
2024/02/20 06:07:36;;;;;;;14.32;6.60;;;6.10;99.90;;;;;;7564267;19;20025;-73
2024/02/20 06:10:09;;;;;;;12.05;6.60;;;6.10;99.90;;;;;;7580392;19;20006;-74
2024/02/20 06:12:41;;;;;;;16.07;7.23;;;6.00;99.90;;;;;;7551842;19;20025;-73
2024/02/20 06:15:14;;;;;;;12.15;6.97;;;6.10;99.90;;;;;;7571054;19;20018;-73
2024/02/20 06:17:48;;;;;;;14.38;8.13;;;6.10;99.90;;;;;;7549740;19;20025;-71
2024/02/20 06:20:21;;;;;;;15.52;7.93;;;6.20;99.90;;;;;;7543415;19;20369;-72
2024/02/20 06:22:55;;;;;;;17.25;8.45;;;6.10;99.90;;;;;;7550257;19;20040;-72
2024/02/20 06:25:28;;;;;;;13.70;8.15;;;6.20;99.90;;;;;;7546863;19;20069;-72
2024/02/20 06:28:02;;;;;;;15.38;8.10;;;6.30;99.90;;;;;;7545020;19;20026;-71
2024/02/20 06:30:35;;;;;;;15.68;8.80;;;6.30;99.90;;;;;;7531061;19;20026;-71
2024/02/20 06:33:07;;;;;;;11.60;7.93;;;6.30;99.90;;;;;;7576275;19;20011;-72
2024/02/20 06:35:41;;;;;;;19.77;8.52;;;6.30;99.90;;;;;;7552549;19;20018;-71
2024/02/20 06:38:14;;;;;;;17.25;8.68;;;6.30;99.90;;;;;;7565495;19;20021;-71
2024/02/20 06:40:46;;;;;;;19.05;9.23;;;6.30;99.90;;;;;;7588911;19;20094;-71
2024/02/20 06:43:18;;;;;;;24.77;9.27;;;6.30;99.90;;;;;;7606221;19;20484;-74
2024/02/20 06:45:53;;;;;;;16.33;9.10;;;6.30;99.90;;;;;;7595699;19;20022;-73
2024/02/20 06:48:25;;;;;;;16.55;8.93;;;6.30;99.90;;;;;;7601373;19;20287;-73
2024/02/20 06:50:58;;;;;;;18.48;8.70;;;6.20;99.90;;;;;;7611410;19;20019;-73
2024/02/20 06:53:30;;;;;;;15.90;6.75;;;6.20;99.90;;;;;;7607536;19;20887;-73
2024/02/20 06:56:02;;;;;;;16.50;7.05;;;6.20;99.90;;;;;;7614996;19;20039;-73
2024/02/20 06:58:35;;;;;;;10.32;5.63;;;6.20;99.90;;;;;;7615412;19;20026;-71
2024/02/20 07:01:08;;;;;;;8.57;5.03;;;6.10;99.90;;;;;;7613411;19;20527;-72
2024/02/20 07:03:41;;;;;;;10.32;4.40;;;6.00;99.90;;;;;;7606591;19;20038;-72
2024/02/20 07:06:13;;;;;;;9.20;4.73;;;6.00;99.90;;;;;;7611856;19;20643;-72
2024/02/20 07:08:46;;;;;;;9.30;5.07;;;6.00;99.90;;;;;;7606390;19;20010;-72
2024/02/20 07:11:18;;;;;;;11.80;4.53;;;6.00;99.90;;;;;;7614262;19;20551;-71
2024/02/20 07:13:51;;;;;;;7.55;4.32;;;6.00;99.90;;;;;;7608965;19;21339;-71
2024/02/20 07:16:23;;;;;;;4.75;3.25;;;6.00;99.90;;;;;;7599642;19;20010;-75
2024/02/20 07:18:55;;;;;;;7.15;3.80;;;6.00;99.90;;;;;;7599990;19;20040;-73
2024/02/20 07:21:28;;;;;;;11.13;4.03;;;6.10;99.90;;;;;;7589397;19;20347;-73
2024/02/20 07:24:01;;;;;;;7.57;3.38;;;6.10;99.90;;;;;;7588156;19;20019;-71
2024/02/20 07:26:33;;;;;;;7.05;4.03;;;6.00;99.90;;;;;;7607564;19;20462;-72
2024/02/20 07:29:05;;;;;;;6.32;3.90;;;6.00;99.90;;;;;;7612311;19;20015;-72
2024/02/20 07:31:38;;;;;;;7.60;4.17;;;5.90;99.90;;;;;;7602495;19;20094;-72
2024/02/20 07:34:11;;;;;;;7.53;4.18;;;5.90;99.90;;;;;;7607493;19;20015;-73
2024/02/20 07:36:48;;;;;;;8.15;5.00;;;5.90;99.90;;;;;;7597840;19;20093;-72
2024/02/20 07:39:20;;;;;;;6.47;4.55;;;6.00;99.90;;;;;;7601720;19;20022;-72
2024/02/20 07:41:53;;;;;;;7.60;4.30;;;6.10;99.90;;;;;;7596426;19;20011;-73
2024/02/20 07:44:25;;;;;;;7.53;4.17;;;6.10;99.90;;;;;;7614082;19;20022;-72
2024/02/20 07:46:58;;;;;;;10.95;4.80;;;6.00;99.90;;;;;;7605665;19;20019;-73
2024/02/20 07:49:30;;;;;;;10.13;4.53;;;6.10;99.90;;;;;;7612337;19;20679;-72
2024/02/20 07:52:04;;;;;;;10.32;4.90;;;6.10;99.90;;;;;;7609471;19;20052;-73
2024/02/20 07:54:37;;;;;;;7.45;5.43;;;6.20;99.90;;;;;;7611233;19;20039;-72
2024/02/20 07:57:10;;;;;;;10.60;5.57;;;6.20;99.90;;;;;;7614052;19;20021;-72
2024/02/20 07:59:43;;;;;;;9.45;5.72;;;6.10;99.90;;;;;;7603922;19;20032;-72
2024/02/20 08:02:15;;;;;;;10.98;5.80;;;6.10;99.90;;;;;;7613907;19;20014;-72
2024/02/20 08:04:48;;;;;;;11.55;5.95;;;6.10;99.90;;;;;;7605645;19;20011;-73
2024/02/20 08:07:21;;;;;;;11.23;6.30;;;6.10;99.90;;;;;;7608111;19;20102;-72
2024/02/20 08:09:55;;;;;;;11.77;7.03;;;6.20;99.90;;;;;;7599757;19;21166;-72
2024/02/20 08:12:27;;;;;;;12.88;6.70;;;6.30;99.90;;;;;;7606258;19;20014;-72
2024/02/20 08:15:00;;;;;;;17.58;6.88;;;6.30;99.90;;;;;;7603644;19;20094;-72
2024/02/20 08:17:33;;;;;;;10.95;6.22;;;6.40;99.90;;;;;;7610965;19;20490;-72
2024/02/20 08:20:06;;;;;;;16.43;7.23;;;6.40;99.90;;;;;;7604435;19;20110;-72
2024/02/20 08:22:40;;;;;;;11.98;6.32;;;6.40;99.90;;;;;;7605005;19;20026;-72
2024/02/20 08:25:13;;;;;;;16.17;7.13;;;6.40;99.90;;;;;;7608604;19;20357;-73
2024/02/20 08:27:45;;;;;;;12.38;7.10;;;6.40;99.90;;;;;;7601456;19;20043;-72
2024/02/20 08:30:22;;;;;;;18.35;7.15;;;6.50;99.90;;;;;;7607175;19;20623;-72
2024/02/20 08:32:54;;;;;;;17.27;7.47;;;6.50;99.90;;;;;;7599868;19;20014;-73
2024/02/20 08:35:27;;;;;;;11.48;6.45;;;6.50;99.90;;;;;;7606445;19;20074;-73
2024/02/20 08:38:00;;;;;;;16.95;6.97;;;6.40;99.90;;;;;;7599259;19;20015;-73
2024/02/20 08:40:32;;;;;;;;;;;6.40;99.90;;;;;;7611048;19;20053;-73
2024/02/20 08:43:06;;;;;;;18.27;6.60;;;6.40;99.90;;;;;;7611933;19;19910;-72
2024/02/20 08:45:39;;;;;;;15.40;6.97;;;6.40;99.90;;;;;;7620208;19;20018;-72
2024/02/20 08:48:12;;;;;;;14.20;6.43;;;6.50;99.90;;;;;;7610458;19;20019;-73
2024/02/20 08:50:44;;;;;;;15.57;6.90;;;6.50;99.90;;;;;;7603442;19;20022;-73
2024/02/20 08:53:16;;;;;;;12.82;5.47;;;6.50;99.90;;;;;;7612443;19;20022;-73
2024/02/20 08:55:49;;;;;;;34.08;6.20;;;6.60;99.90;;;;;;7599162;19;20376;-74
2024/02/20 08:58:23;;;;;;;16.10;6.45;;;6.60;99.90;;;;;;7605081;19;20487;-74
2024/02/20 09:00:56;;;;;;;22.02;6.13;;;6.60;99.90;;;;;;7610367;19;20018;-73
2024/02/20 09:03:33;;;;;;;17.08;5.82;;;6.70;99.90;;;;;;7605069;19;20019;-72
2024/02/20 09:06:05;;;;;;;15.00;5.65;;;6.80;99.90;;;;;;7587619;19;20565;-73
2024/02/20 09:08:38;;;;;;;20.30;5.80;;;6.80;99.90;;;;;;7603002;19;20018;-72
2024/02/20 09:11:11;;;;;;;12.25;5.05;;;6.80;99.90;;;;;;7606066;19;20010;-72
2024/02/20 09:13:43;;;;;;;12.60;5.45;;;6.90;99.90;;;;;;7604714;19;20350;-72
2024/02/20 09:16:15;;;;;;;13.05;5.20;;;6.90;99.90;;;;;;7609340;19;20014;-71
2024/02/20 09:18:48;;;;;;;11.63;4.88;;;6.90;99.90;;;;;;7599763;19;20022;-74
2024/02/20 09:21:20;;;;;;;12.55;5.57;;;6.90;99.90;;;;;;7603575;19;20019;-72
2024/02/20 09:23:52;;;;;;;12.88;4.95;;;6.80;99.90;;;;;;7601145;19;20182;-72
2024/02/20 09:26:25;;;;;;;16.65;4.97;;;6.80;99.90;;;;;;7613480;19;20875;-72
2024/02/20 09:28:58;;;;;;;12.95;5.53;;;6.80;99.90;;;;;;7596124;19;20116;-72
2024/02/20 09:31:30;;;;;;;17.75;5.28;;;6.90;99.90;;;;;;7606369;19;20052;-73
2024/02/20 09:34:02;;;;;;;21.25;6.25;;;6.80;99.90;;;;;;7600111;19;20014;-73
2024/02/20 09:36:35;;;;;;;17.15;5.25;;;7.00;99.90;;;;;;7602265;19;20056;-73
2024/02/20 09:39:07;;;;;;;13.60;5.00;;;7.00;99.90;;;;;;7485322;19;20052;-73
2024/02/20 09:41:40;;;;;;;15.98;5.53;;;7.10;99.90;;;;;;7599059;19;20022;-72
2024/02/20 09:44:13;;;;;;;;;;;7.20;99.90;;;;;;7582062;19;21103;-72
2024/02/20 09:46:54;;;;;;;17.30;5.15;;;7.20;99.90;;;;;;7559324;19;20739;-72
2024/02/20 09:49:27;;;;;;;13.55;5.07;;;7.00;99.90;;;;;;7572806;19;20026;-74
2024/02/20 09:52:03;;;;;;;16.55;5.72;;;7.10;99.90;;;;;;7539941;19;20006;-73
2024/02/20 09:54:36;;;;;;;18.23;5.65;;;7.30;99.90;;;;;;7584712;19;20014;-73
2024/02/20 09:57:09;;;;;;;;;;;7.50;99.90;;;;;;7591107;19;20015;-73
2024/02/20 09:59:44;;;;;;;17.63;5.20;;;7.70;99.90;;;;;;7592419;19;19914;-73
2024/02/20 10:02:21;;;;;;;26.33;6.00;;;7.70;99.90;;;;;;7571225;19;20014;-74
2024/02/20 10:04:53;;;;;;;15.88;4.60;;;7.60;99.90;;;;;;7565121;19;20014;-73
2024/02/20 10:07:25;;;;;;;13.57;5.07;;;7.60;99.90;;;;;;7591607;19;20018;-72
2024/02/20 10:09:58;;;;;;;13.05;5.00;;;7.60;99.90;;;;;;7582439;19;20472;-73
2024/02/20 10:12:31;;;;;;;18.33;5.72;;;7.50;99.90;;;;;;7607281;19;20022;-74
2024/02/20 10:15:10;;;;;;;16.85;4.90;;;7.50;99.90;;;;;;7598280;19;20010;-73
2024/02/20 10:17:42;;;;;;;13.65;4.72;;;7.70;99.90;;;;;;7606518;19;20032;-74
2024/02/20 10:20:16;;;;;;;17.52;5.25;;;7.70;99.90;;;;;;7602223;19;20014;-73
2024/02/20 10:22:49;;;;;;;14.05;5.07;;;7.70;99.90;;;;;;7598231;19;20029;-73
2024/02/20 10:25:22;;;;;;;12.07;4.73;;;7.60;99.90;;;;;;7606862;19;20014;-73
2024/02/20 10:27:54;;;;;;;13.85;3.25;;;7.10;99.90;;;;;;7594124;19;20105;-73
2024/02/20 10:30:30;;;;;;;13.60;4.20;;;7.00;99.90;;;;;;7596990;19;20019;-73
2024/02/20 10:33:04;;;;;;;10.60;4.15;;;6.60;99.90;;;;;;7578634;19;20044;-72
2024/02/20 10:35:39;;;;;;;12.20;4.05;;;6.50;99.90;;;;;;7596421;19;20093;-72
2024/02/20 10:38:18;;;;;;;8.65;3.80;;;6.30;99.90;;;;;;7581140;19;20369;-73
2024/02/20 10:40:50;;;;;;;9.93;4.90;;;6.40;99.90;;;;;;7580987;19;20150;-73
2024/02/20 10:43:25;;;;;;;12.70;3.97;;;6.50;99.90;;;;;;7581646;19;22183;-73
2024/02/20 10:45:59;;;;;;;15.20;4.43;;;6.70;99.90;;;;;;7588736;19;20021;-73
2024/02/20 10:48:31;;;;;;;17.50;5.50;;;6.80;99.90;;;;;;7597742;19;20445;-73
2024/02/20 10:51:04;;;;;;;15.93;4.82;;;7.00;99.90;;;;;;7583915;19;20031;-73
2024/02/20 10:53:37;;;;;;;14.45;5.15;;;7.10;99.90;;;;;;7594714;19;20013;-72
2024/02/20 10:56:10;;;;;;;18.95;5.15;;;7.20;99.90;;;;;;7585973;19;20021;-72
2024/02/20 10:58:44;;;;;;;18.20;4.97;;;7.10;99.90;;;;;;7559823;19;20045;-72
2024/02/20 11:01:17;;;;;;;15.27;5.32;;;7.30;99.90;;;;;;7579440;19;20010;-74
2024/02/20 11:03:50;;;;;;;13.30;5.10;;;7.30;99.90;;;;;;7583338;19;20019;-73
2024/02/20 11:06:34;;;;;;;;;;;7.50;99.90;;;;;;7598767;19;20022;-73
2024/02/20 11:09:11;;;;;;;23.42;4.85;;;7.60;99.90;;;;;;7583199;19;21113;-72
2024/02/20 11:11:45;;;;;;;20.52;5.57;;;7.60;99.90;;;;;;7584279;19;20554;-73
2024/02/20 11:14:25;;;;;;;11.35;4.93;;;7.60;99.90;;;;;;7588169;19;20032;-72
2024/02/20 11:16:58;;;;;;;14.60;4.43;;;7.50;99.90;;;;;;7601156;19;20022;-74
2024/02/20 11:19:44;;;;;;;20.55;4.82;;;7.50;99.90;;;;;;7585573;19;20018;-74
2024/02/20 11:22:26;;;;;;;17.70;4.90;;;7.50;99.90;;;;;;7607603;19;20027;-74
2024/02/20 11:25:09;;;;;;;12.23;4.93;;;7.60;99.90;;;;;;7584785;19;20303;-74
2024/02/20 11:27:48;;;;;;;13.40;5.00;;;7.70;99.90;;;;;;7595693;19;20010;-74
2024/02/20 11:30:24;;;;;;;13.85;3.80;;;7.80;99.90;;;;;;7581870;19;20026;-75
2024/02/20 11:32:57;;;;;;;17.33;4.80;;;7.70;99.90;;;;;;7575798;19;20010;-74
2024/02/20 11:35:32;;;;;;;12.25;4.50;;;7.70;99.90;;;;;;7600576;19;20015;-75
2024/02/20 11:38:11;;;;;;;19.67;4.85;;;7.70;99.90;;;;;;7597881;19;20085;-74
2024/02/20 11:40:44;;;;;;;9.32;3.88;;;7.60;99.90;;;;;;7602244;19;20022;-75
2024/02/20 11:43:19;;;;;;;16.03;4.37;;;7.60;99.90;;;;;;7592297;19;20023;-74
2024/02/20 11:45:59;;;;;;;13.98;3.70;;;7.80;99.90;;;;;;7591283;19;20018;-73
2024/02/20 11:48:32;;;;;;;12.23;4.47;;;7.90;99.90;;;;;;7590844;19;20015;-74
2024/02/20 11:51:07;;;;;;;14.63;4.95;;;9.00;99.90;;;;;;7586570;19;20018;-74
2024/02/20 11:53:39;;;;;;;15.02;3.90;;;11.00;99.90;;;;;;7609367;19;20026;-74
2024/02/20 11:56:13;;;;;;;10.23;3.80;;;11.00;99.90;;;;;;7583667;19;20014;-74
2024/02/20 11:58:46;;;;;;;14.70;4.22;;;11.20;99.90;;;;;;7597688;19;20057;-74
2024/02/20 12:01:18;;;;;;;8.18;3.75;;;12.90;99.90;;;;;;7591979;19;20031;-74
2024/02/20 12:03:50;;;;;;;14.60;3.97;;;11.80;99.90;;;;;;7592845;19;20586;-74
2024/02/20 12:06:27;;;;;;;15.88;4.90;;;12.70;99.90;;;;;;7554604;19;20030;-74
2024/02/20 12:09:00;;;;;;;13.85;3.70;;;13.80;98.60;;;;;;7582169;19;20018;-73
2024/02/20 12:11:32;;;;;;;11.15;3.20;;;12.50;97.50;;;;;;7589585;19;20596;-74
2024/02/20 12:14:15;;;;;;;9.37;3.77;;;11.40;99.80;;;;;;7598620;19;20384;-74
2024/02/20 12:16:57;;;;;;;8.45;2.75;;;10.90;98.00;;;;;;7601760;19;20044;-74
2024/02/20 12:19:31;;;;;;;10.15;3.42;;;10.80;99.90;;;;;;7591893;19;20836;-74
2024/02/20 12:22:03;;;;;;;13.57;3.47;;;10.60;99.20;;;;;;7591858;19;20056;-73
2024/02/20 12:24:36;;;;;;;11.07;3.22;;;10.50;99.90;;;;;;7592755;19;20296;-75
2024/02/20 12:27:12;;;;;;;12.00;2.65;;;11.30;98.30;;;;;;7591999;19;20043;-74
2024/02/20 12:29:45;;;;;;;11.90;2.80;;;12.40;97.10;;;;;;7582346;19;20686;-74
2024/02/20 12:32:17;;;;;;;7.72;3.30;;;11.60;95.80;;;;;;7586656;19;20068;-74
2024/02/20 12:34:50;;;;;;;11.45;2.90;;;10.90;98.30;;;;;;7588415;19;20097;-74
2024/02/20 12:37:25;;;;;;;7.28;2.13;;;10.40;98.20;;;;;;7579031;19;20025;-74
2024/02/20 12:39:57;;;;;;;9.18;3.35;;;9.80;98.80;;;;;;7585927;19;20018;-74
2024/02/20 12:42:30;;;;;;;10.13;3.57;;;9.40;99.90;;;;;;7573333;19;20018;-73
2024/02/20 12:45:05;;;;;;;11.80;3.35;;;9.10;99.90;;;;;;7606435;19;20021;-74
2024/02/20 12:47:37;;;;;;;11.40;3.00;;;8.70;99.90;;;;;;7603070;19;20058;-74
2024/02/20 12:50:10;;;;;;;12.57;3.40;;;8.40;99.90;;;;;;7591369;19;20014;-74
2024/02/20 12:52:42;;;;;;;12.02;4.05;;;8.30;99.90;;;;;;7582629;19;21015;-75
2024/02/20 12:55:15;;;;;;;9.27;3.47;;;8.10;99.90;;;;;;7602164;19;20029;-74
2024/02/20 12:57:47;;;;;;;14.47;3.90;;;8.10;99.90;;;;;;7604929;19;20014;-74
2024/02/20 13:00:19;;;;;;;12.60;3.58;;;8.70;99.90;;;;;;7587178;19;20086;-74
2024/02/20 13:02:54;;;;;;;13.10;3.67;;;8.90;99.90;;;;;;7580395;19;20015;-74
2024/02/20 13:05:28;;;;;;;9.88;3.08;;;8.90;99.90;;;;;;7600744;19;20014;-74
2024/02/20 13:08:04;;;;;;;13.48;3.67;;;8.90;99.90;;;;;;7606939;19;20018;-74
2024/02/20 13:10:36;;;;;;;7.28;2.80;;;8.70;99.90;;;;;;7602699;19;20694;-74
2024/02/20 13:13:09;;;;;;;9.95;2.67;;;8.90;99.90;;;;;;7601191;19;20025;-74
2024/02/20 13:15:42;;;;;;;8.85;3.03;;;8.80;99.90;;;;;;7585768;19;21523;-75
2024/02/20 13:18:14;;;;;;;9.63;2.75;;;8.80;99.90;;;;;;7592553;19;20089;-74
2024/02/20 13:20:48;;;;;;;9.65;2.38;;;8.80;99.90;;;;;;7602832;19;20054;-74
2024/02/20 13:23:21;;;;;;;10.65;2.53;;;8.80;99.90;;;;;;7595221;19;20089;-75